Main page
METAR-TAF:

METAR-TAF

Airports :

Le Touquet – Côte d'Opale Airport

Le Touquet, France

latitude: 50-30-53N, longitude: 001-37-39E, elevation: 6 m

Current weather observation

The report was made 30 minutes ago, at 00:30 UTC
Wind 7 kt from the Southwest, varying between South/Southwest and West
Temperature 10°C
Humidity 87%
Pressure 1023 hPa
Visibility 10 km or more

METAR: LFAT 210030Z AUTO 23007KT 200V260 9999 BKN013/// BKN018/// BKN130/// 10/08 Q1023

Time: 02:00 (01:00 UTC)

Forecast

The report was made 9 hours and 55 minutes ago, at 15:05 UTC
Forecast valid from 20 at 15 UTC to 20 at 24 UTC
Wind 12 kt from the Southwest
Visibility 10 km or more
Broken clouds at a height of 1200 ft
Temporary
from 20 at 15 UTC to 20 at 20 UTC
Wind 15 kt from the Southwest with gusts up to 25 kt
Broken clouds at a height of 600 ft

TAF: LFAT 201505Z 2015/2024 23012KT 9999 BKN012 TEMPO 2015/2020 23015G25KT BKN006

Weather observations and forecasts of more than 4000 airports (METAR and TAF reports).

The available stations are represented by yellow and red dots on the map.

Hover mouse over dot to see the name of the station.

Then click to see weather observations and forecasts.

To change the map : click on the green buttons with a black cross to zoom in, on the green button with a dash to zoom out, or on the green arrows for adjacent maps.


METAR-TAF: